Time;durP1;ratioP1;P1;durP2;ratioP2;P2;SDS_P1;SDS_P2;PMS_P1;PMS_P2;Temp;Humidity;BMP_temperature;BMP_pressure;BME280_temperature;BME280_humidity;BME280_pressure;Samples;Min_cycle;Max_cycle;Signal;HPM_P1;HPM_P2
2022/07/17 00:00:45;;;;;;;8.20;4.20;;;;;;;;;;5116368;27;20465;-73
2022/07/17 00:03:13;;;;;;;4.17;3.40;;;;;;;;;;5116123;28;20481;-73
2022/07/17 00:05:42;;;;;;;4.17;3.77;;;;;;;;;;5115990;28;20453;-73
2022/07/17 00:08:09;;;;;;;4.60;2.90;;;;;;;;;;5116099;28;20449;-73
2022/07/17 00:10:36;;;;;;;3.43;2.80;;;;;;;;;;5116056;28;20460;-73
2022/07/17 00:13:04;;;;;;;12.20;3.23;;;;;;;;;;5115954;28;20473;-73
2022/07/17 00:15:31;;;;;;;6.40;3.70;;;;;;;;;;5115813;28;20971;-73
2022/07/17 00:17:58;;;;;;;5.70;3.43;;;;;;;;;;5115959;28;20489;-73
2022/07/17 00:20:26;;;;;;;6.13;4.57;;;;;;;;;;5115895;28;20515;-73
2022/07/17 00:22:55;;;;;;;3.60;3.30;;;;;;;;;;5115830;28;20871;-73
2022/07/17 00:25:23;;;;;;;3.80;3.50;;;;;;;;;;5115567;28;20509;-73
2022/07/17 00:27:50;;;;;;;6.87;3.53;;;;;;;;;;5115600;28;20462;-73
2022/07/17 00:30:17;;;;;;;5.17;3.73;;;;;;;;;;5115743;28;20515;-73
2022/07/17 00:32:45;;;;;;;4.10;3.20;;;;;;;;;;5115613;28;20476;-73
2022/07/17 00:35:12;;;;;;;5.63;4.13;;;;;;;;;;5115807;28;20450;-73
2022/07/17 00:37:40;;;;;;;3.20;2.90;;;;;;;;;;5115400;28;20492;-73
2022/07/17 00:40:10;;;;;;;5.63;3.40;;;;;;;;;;5115754;27;21032;-73
2022/07/17 00:42:39;;;;;;;4.53;4.13;;;;;;;;;;5115495;28;20481;-73
2022/07/17 00:45:07;;;;;;;4.10;3.63;;;;;;;;;;5115167;27;20457;-73
2022/07/17 00:47:34;;;;;;;3.73;3.33;;;;;;;;;;5115535;28;20442;-73
2022/07/17 00:50:01;;;;;;;4.60;2.97;;;;;;;;;;5115586;28;20445;-73
2022/07/17 00:52:28;;;;;;;3.70;3.20;;;;;;;;;;5114935;28;20465;-73
2022/07/17 00:54:57;;;;;;;3.73;3.20;;;;;;;;;;5115042;28;20454;-73
2022/07/17 00:57:26;;;;;;;3.67;3.37;;;;;;;;;;5115137;28;20485;-73
2022/07/17 00:59:53;;;;;;;4.80;3.60;;;;;;;;;;5115289;28;20457;-73
2022/07/17 01:02:20;;;;;;;6.57;3.50;;;;;;;;;;5115093;28;20819;-73
2022/07/17 01:04:48;;;;;;;3.83;3.30;;;;;;;;;;5114969;28;20441;-73
2022/07/17 01:07:15;;;;;;;3.50;3.20;;;;;;;;;;5115239;28;20457;-73
2022/07/17 01:09:42;;;;;;;4.20;3.80;;;;;;;;;;5115013;28;20461;-74
2022/07/17 01:12:10;;;;;;;4.10;3.70;;;;;;;;;;5114940;27;20466;-73
2022/07/17 01:14:38;;;;;;;3.30;2.97;;;;;;;;;;5114888;28;20445;-73
2022/07/17 01:17:05;;;;;;;3.93;3.00;;;;;;;;;;5115051;28;20994;-73
2022/07/17 01:19:32;;;;;;;3.90;3.57;;;;;;;;;;5114863;28;20461;-73
2022/07/17 01:22:01;;;;;;;5.30;4.00;;;;;;;;;;5114613;28;20469;-74
2022/07/17 01:24:28;;;;;;;3.73;3.37;;;;;;;;;;5114561;28;20449;-73
2022/07/17 01:26:55;;;;;;;4.67;3.57;;;;;;;;;;5114908;28;20465;-73
2022/07/17 01:29:22;;;;;;;4.33;3.40;;;;;;;;;;5114747;28;20445;-73
2022/07/17 01:31:49;;;;;;;12.67;4.20;;;;;;;;;;5114891;28;20472;-73
2022/07/17 01:34:16;;;;;;;4.43;3.50;;;;;;;;;;5114253;28;20449;-73
2022/07/17 01:36:44;;;;;;;4.17;3.77;;;;;;;;;;5114363;28;20453;-73
2022/07/17 01:39:12;;;;;;;3.90;3.40;;;;;;;;;;5114310;28;20489;-73
2022/07/17 01:41:39;;;;;;;3.67;3.10;;;;;;;;;;5114500;28;20851;-73
2022/07/17 01:44:08;;;;;;;4.40;4.00;;;;;;;;;;5113959;28;20446;-73
2022/07/17 01:46:35;;;;;;;3.90;3.60;;;;;;;;;;5114451;28;20985;-73
2022/07/17 01:49:02;;;;;;;4.93;3.47;;;;;;;;;;5114414;28;20438;-73
2022/07/17 01:51:29;;;;;;;4.50;4.10;;;;;;;;;;5113657;28;20477;-73
2022/07/17 01:53:56;;;;;;;5.77;4.60;;;;;;;;;;5114124;28;20445;-73
2022/07/17 01:56:25;;;;;;;4.47;3.40;;;;;;;;;;5113977;28;20450;-73
2022/07/17 01:58:52;;;;;;;4.93;4.37;;;;;;;;;;5114264;28;21002;-73
2022/07/17 02:01:19;;;;;;;6.07;4.63;;;;;;;;;;5113875;28;20483;-73
2022/07/17 02:03:46;;;;;;;8.90;4.30;;;;;;;;;;5113764;28;20458;-74
2022/07/17 02:06:13;;;;;;;5.00;4.00;;;;;;;;;;5113866;28;20973;-73
2022/07/17 02:08:41;;;;;;;5.17;4.67;;;;;;;;;;5114011;27;20473;-73
2022/07/17 02:11:08;;;;;;;4.93;4.50;;;;;;;;;;5113790;28;20477;-74
2022/07/17 02:13:36;;;;;;;6.37;4.70;;;;;;;;;;5113094;28;20454;-73
2022/07/17 02:16:04;;;;;;;6.00;3.80;;;;;;;;;;5113835;28;20482;-73
2022/07/17 02:18:31;;;;;;;7.47;4.43;;;;;;;;;;5113613;28;20849;-73
2022/07/17 02:20:58;;;;;;;5.50;4.97;;;;;;;;;;5114012;28;20457;-73
2022/07/17 02:23:25;;;;;;;5.60;5.00;;;;;;;;;;5113547;28;20478;-73
2022/07/17 02:25:52;;;;;;;6.03;4.90;;;;;;;;;;5113474;28;20450;-73
2022/07/17 02:28:19;;;;;;;5.37;4.87;;;;;;;;;;5113698;28;20441;-73
2022/07/17 02:30:48;;;;;;;8.47;5.00;;;;;;;;;;5113584;28;20947;-73
2022/07/17 02:33:15;;;;;;;7.33;5.57;;;;;;;;;;5113308;28;20470;-73
2022/07/17 02:35:42;;;;;;;7.77;5.50;;;;;;;;;;5113266;28;20481;-73
2022/07/17 02:38:09;;;;;;;6.33;5.10;;;;;;;;;;5113388;28;20493;-72
2022/07/17 02:40:36;;;;;;;7.27;5.53;;;;;;;;;;5113539;28;20450;-73
2022/07/17 02:43:03;;;;;;;5.73;4.77;;;;;;;;;;5113424;28;20477;-73
2022/07/17 02:45:30;;;;;;;8.90;5.80;;;;;;;;;;5113079;28;20821;-73
2022/07/17 02:47:59;;;;;;;5.80;4.70;;;;;;;;;;5113491;28;20452;-73
2022/07/17 02:50:26;;;;;;;5.20;4.70;;;;;;;;;;5113452;28;20459;-73
2022/07/17 02:52:53;;;;;;;7.70;5.37;;;;;;;;;;5112953;28;20484;-73
2022/07/17 02:55:21;;;;;;;6.30;5.70;;;;;;;;;;5113030;28;20457;-73
2022/07/17 02:57:48;;;;;;;5.53;4.57;;;;;;;;;;5113331;28;20572;-73
2022/07/17 03:00:16;;;;;;;7.93;4.73;;;;;;;;;;5113223;28;20445;-73
2022/07/17 03:02:43;;;;;;;4.60;4.20;;;;;;;;;;5113138;28;20481;-73
2022/07/17 03:05:12;;;;;;;7.13;5.03;;;;;;;;;;5112961;28;20454;-73
2022/07/17 03:07:39;;;;;;;6.20;5.57;;;;;;;;;;5113395;28;20461;-73
2022/07/17 03:10:07;;;;;;;5.57;5.03;;;;;;;;;;5113289;28;20452;-72
2022/07/17 03:12:34;;;;;;;7.40;5.07;;;;;;;;;;5113253;28;20470;-73
2022/07/17 03:15:01;;;;;;;4.97;4.47;;;;;;;;;;5112880;28;20469;-72
2022/07/17 03:17:28;;;;;;;6.03;5.03;;;;;;;;;;5113182;28;20950;-73
2022/07/17 03:19:55;;;;;;;5.70;5.17;;;;;;;;;;5113157;28;20445;-73
2022/07/17 03:22:23;;;;;;;5.20;4.70;;;;;;;;;;5112897;28;20473;-73
2022/07/17 03:24:51;;;;;;;5.80;5.07;;;;;;;;;;5112904;28;20446;-73
2022/07/17 03:27:18;;;;;;;5.53;4.43;;;;;;;;;;5115719;28;20465;-73
2022/07/17 03:29:45;;;;;;;6.30;5.27;;;;;;;;;;5117048;27;20832;-73
2022/07/17 03:32:13;;;;;;;4.80;4.43;;;;;;;;;;5116963;27;20469;-73
2022/07/17 03:34:40;;;;;;;5.90;5.27;;;;;;;;;;5116734;28;20498;-73
2022/07/17 03:37:07;;;;;;;6.00;5.30;;;;;;;;;;5116971;28;20460;-73
2022/07/17 03:39:36;;;;;;;6.70;5.17;;;;;;;;;;5116767;28;20493;-73
2022/07/17 03:42:03;;;;;;;9.10;5.13;;;;;;;;;;5116724;28;20496;-73
2022/07/17 03:44:30;;;;;;;7.97;4.60;;;;;;;;;;5116732;28;20457;-73
2022/07/17 03:46:57;;;;;;;5.40;4.40;;;;;;;;;;5116753;27;20824;-73
2022/07/17 03:49:24;;;;;;;8.60;5.10;;;;;;;;;;5116546;28;20520;-73
2022/07/17 03:51:51;;;;;;;5.50;4.60;;;;;;;;;;5115942;28;20474;-73
2022/07/17 03:54:18;;;;;;;7.03;4.93;;;;;;;;;;5116247;28;20457;-73
2022/07/17 03:56:47;;;;;;;5.10;4.60;;;;;;;;;;5116360;28;20449;-73
2022/07/17 03:59:14;;;;;;;5.47;5.00;;;;;;;;;;5116422;28;20485;-73
2022/07/17 04:01:41;;;;;;;6.37;4.57;;;;;;;;;;5116326;28;20522;-73
2022/07/17 04:04:08;;;;;;;4.87;4.40;;;;;;;;;;5116039;28;20942;-73
2022/07/17 04:06:35;;;;;;;5.17;4.70;;;;;;;;;;5116201;28;20473;-73
2022/07/17 04:09:02;;;;;;;6.13;4.53;;;;;;;;;;5116233;28;20457;-73
2022/07/17 04:11:29;;;;;;;5.13;4.33;;;;;;;;;;5115885;28;20473;-73
2022/07/17 04:13:58;;;;;;;8.33;4.13;;;;;;;;;;5115979;28;20453;-73
2022/07/17 04:16:25;;;;;;;21.27;5.07;;;;;;;;;;5115963;28;20454;-73
2022/07/17 04:18:53;;;;;;;5.80;4.73;;;;;;;;;;5116299;28;20477;-73
2022/07/17 04:21:20;;;;;;;6.90;4.70;;;;;;;;;;5115868;28;20465;-73
2022/07/17 04:23:47;;;;;;;4.90;4.00;;;;;;;;;;5115659;28;20670;-73
2022/07/17 04:26:14;;;;;;;4.20;3.87;;;;;;;;;;5115767;28;20466;-73
2022/07/17 04:28:41;;;;;;;8.10;3.60;;;;;;;;;;5116019;28;20926;-73
2022/07/17 04:31:09;;;;;;;4.80;3.60;;;;;;;;;;5115715;28;20454;-74
2022/07/17 04:33:37;;;;;;;3.90;3.50;;;;;;;;;;5115704;28;20517;-74
2022/07/17 04:36:04;;;;;;;3.53;2.90;;;;;;;;;;5115625;28;20449;-74
2022/07/17 04:38:31;;;;;;;6.10;3.20;;;;;;;;;;5115116;28;20496;-74
2022/07/17 04:40:58;;;;;;;3.30;2.60;;;;;;;;;;5115865;28;20446;-74
2022/07/17 04:43:25;;;;;;;2.60;2.40;;;;;;;;;;5115442;28;21009;-74
2022/07/17 04:45:52;;;;;;;3.00;2.70;;;;;;;;;;5115644;28;20454;-74
2022/07/17 04:48:21;;;;;;;2.90;2.53;;;;;;;;;;5115428;28;20434;-74
2022/07/17 04:50:48;;;;;;;3.33;3.07;;;;;;;;;;5115549;28;20460;-74
2022/07/17 04:53:15;;;;;;;4.00;2.77;;;;;;;;;;5114495;28;20477;-74
2022/07/17 04:55:42;;;;;;;5.30;3.70;;;;;;;;;;5115164;28;20453;-74
2022/07/17 04:58:09;;;;;;;3.70;3.10;;;;;;;;;;5115034;27;20457;-74
2022/07/17 05:00:36;;;;;;;6.60;2.97;;;;;;;;;;5115296;28;20445;-74
2022/07/17 05:03:03;;;;;;;3.50;3.13;;;;;;;;;;5115008;28;20469;-74
2022/07/17 05:05:32;;;;;;;7.80;3.63;;;;;;;;;;5115075;28;20449;-74
2022/07/17 05:07:59;;;;;;;8.77;2.97;;;;;;;;;;5115185;28;20845;-74
2022/07/17 05:10:26;;;;;;;6.97;3.43;;;;;;;;;;5115070;28;20822;-74
2022/07/17 05:12:53;;;;;;;9.13;4.90;;;;;;;;;;5115067;28;20466;-74
2022/07/17 05:15:20;;;;;;;8.77;4.17;;;;;;;;;;5114998;28;20453;-74
2022/07/17 05:17:47;;;;;;;10.97;5.93;;;;;;;;;;5115120;28;20454;-74
2022/07/17 05:20:15;;;;;;;7.70;4.87;;;;;;;;;;5114674;27;20493;-74
2022/07/17 05:22:43;;;;;;;5.70;3.53;;;;;;;;;;5114813;27;20472;-74
2022/07/17 05:25:10;;;;;;;5.63;3.53;;;;;;;;;;5114491;28;20449;-74
2022/07/17 05:27:37;;;;;;;3.87;2.73;;;;;;;;;;5114577;28;20465;-74
2022/07/17 05:30:05;;;;;;;7.20;3.37;;;;;;;;;;5114710;28;20449;-74
2022/07/17 05:32:32;;;;;;;4.23;3.30;;;;;;;;;;5114466;28;20469;-74
2022/07/17 05:34:59;;;;;;;2.77;2.50;;;;;;;;;;5114385;28;20457;-74
2022/07/17 05:37:26;;;;;;;3.00;2.70;;;;;;;;;;5114542;28;20450;-74
2022/07/17 05:39:54;;;;;;;3.27;2.87;;;;;;;;;;5114379;28;20488;-74
2022/07/17 05:42:22;;;;;;;2.80;2.50;;;;;;;;;;5114305;28;20462;-74
2022/07/17 05:44:49;;;;;;;3.30;2.20;;;;;;;;;;5113960;28;20483;-74
2022/07/17 05:47:16;;;;;;;3.20;2.30;;;;;;;;;;5114211;28;20446;-74
2022/07/17 05:49:43;;;;;;;3.70;2.70;;;;;;;;;;5113393;28;20441;-74
2022/07/17 05:52:10;;;;;;;3.40;2.37;;;;;;;;;;5113488;28;20584;-74
2022/07/17 05:54:37;;;;;;;2.50;2.27;;;;;;;;;;5113804;28;20445;-75
2022/07/17 05:57:06;;;;;;;5.13;2.50;;;;;;;;;;5113978;28;20449;-75
2022/07/17 05:59:33;;;;;;;3.83;2.33;;;;;;;;;;5113811;28;20484;-74
2022/07/17 06:02:00;;;;;;;4.60;2.97;;;;;;;;;;5114085;28;20473;-74
2022/07/17 06:04:27;;;;;;;2.50;2.27;;;;;;;;;;5113775;28;20448;-74
2022/07/17 06:06:54;;;;;;;2.30;2.07;;;;;;;;;;5113471;27;20954;-74
2022/07/17 06:09:21;;;;;;;3.20;2.27;;;;;;;;;;5113763;28;20456;-74
2022/07/17 06:11:48;;;;;;;3.53;2.17;;;;;;;;;;5113575;28;20475;-74
2022/07/17 06:14:17;;;;;;;3.77;2.30;;;;;;;;;;5113318;28;20828;-74
2022/07/17 06:16:44;;;;;;;3.17;2.30;;;;;;;;;;5113785;28;20495;-74
2022/07/17 06:19:11;;;;;;;2.40;2.20;;;;;;;;;;5113625;28;20517;-75
2022/07/17 06:21:38;;;;;;;2.40;2.10;;;;;;;;;;5113578;28;20472;-74
2022/07/17 06:24:05;;;;;;;2.10;1.90;;;;;;;;;;5113392;28;20941;-75
2022/07/17 06:26:32;;;;;;;4.80;2.23;;;;;;;;;;5113445;28;20465;-75
2022/07/17 06:28:59;;;;;;;3.83;2.40;;;;;;;;;;5113506;28;20457;-74
2022/07/17 06:31:28;;;;;;;3.83;2.40;;;;;;;;;;5113503;28;20823;-74
2022/07/17 06:33:55;;;;;;;2.43;2.20;;;;;;;;;;5113258;27;20441;-74
2022/07/17 06:36:22;;;;;;;3.30;2.03;;;;;;;;;;5113408;28;20812;-74
2022/07/17 06:38:49;;;;;;;2.37;2.17;;;;;;;;;;5113383;28;21003;-74
2022/07/17 06:41:16;;;;;;;4.87;2.57;;;;;;;;;;5113205;28;20479;-74
2022/07/17 06:43:43;;;;;;;2.97;2.60;;;;;;;;;;5113326;28;20448;-75
2022/07/17 06:46:11;;;;;;;4.33;2.80;;;;;;;;;;5113300;28;20445;-75
2022/07/17 06:48:39;;;;;;;3.30;2.30;;;;;;;;;;5113258;28;20445;-74
2022/07/17 06:51:06;;;;;;;4.67;2.50;;;;;;;;;;5113140;28;20445;-75
2022/07/17 06:53:33;;;;;;;3.60;2.50;;;;;;;;;;5113030;28;20456;-75
2022/07/17 06:56:01;;;;;;;2.80;2.27;;;;;;;;;;5113281;28;20456;-74
2022/07/17 06:58:28;;;;;;;3.47;2.47;;;;;;;;;;5113223;28;20452;-74
2022/07/17 07:00:55;;;;;;;2.37;2.17;;;;;;;;;;5115464;28;20449;-74
2022/07/17 07:03:22;;;;;;;2.50;2.00;;;;;;;;;;5117329;28;20468;-75
2022/07/17 07:05:50;;;;;;;3.83;2.47;;;;;;;;;;5117240;28;20522;-75
2022/07/17 07:08:17;;;;;;;2.80;2.50;;;;;;;;;;5117297;27;20453;-74
2022/07/17 07:10:45;;;;;;;3.23;2.93;;;;;;;;;;5117252;28;20448;-74
2022/07/17 07:13:13;;;;;;;4.87;2.67;;;;;;;;;;5117168;28;20473;-74
2022/07/17 07:15:40;;;;;;;4.93;3.03;;;;;;;;;;5117245;28;20449;-75
2022/07/17 07:18:07;;;;;;;3.77;3.00;;;;;;;;;;5117075;28;20480;-74
2022/07/17 07:20:34;;;;;;;4.10;3.70;;;;;;;;;;5116920;27;20817;-74
2022/07/17 07:23:03;;;;;;;4.00;2.30;;;;;;;;;;5112825;28;20548;-75
2022/07/17 07:25:30;;;;;;;3.33;2.80;;;;;;;;;;5114882;28;20452;-75
2022/07/17 07:27:57;;;;;;;3.03;2.63;;;;;;;;;;5115198;28;20457;-75
2022/07/17 07:30:24;;;;;;;3.83;2.87;;;;;;;;;;5115302;28;20448;-75
2022/07/17 07:32:51;;;;;;;3.10;2.60;;;;;;;;;;5115400;28;20469;-75
2022/07/17 07:35:18;;;;;;;3.13;2.90;;;;;;;;;;5115291;28;20533;-74
2022/07/17 07:37:45;;;;;;;3.30;3.00;;;;;;;;;;5116452;28;20440;-75
2022/07/17 07:40:14;;;;;;;2.50;2.27;;;;;;;;;;5115720;28;20484;-74
2022/07/17 07:42:41;;;;;;;6.53;2.70;;;;;;;;;;5113820;28;20477;-75
2022/07/17 07:45:09;;;;;;;3.07;2.10;;;;;;;;;;5115029;27;20505;-75
2022/07/17 07:47:42;;;;;;;3.97;3.33;;;;;;;;;;5115098;28;20930;-75
2022/07/17 07:50:09;;;;;;;3.10;2.80;;;;;;;;;;5114999;28;20964;-75
2022/07/17 07:52:37;;;;;;;3.60;3.30;;;;;;;;;;5114806;28;20472;-75
2022/07/17 07:55:04;;;;;;;3.00;2.60;;;;;;;;;;5115576;28;20453;-75
2022/07/17 07:57:32;;;;;;;3.80;2.60;;;;;;;;;;5116066;27;20457;-74
2022/07/17 07:59:59;;;;;;;5.17;3.97;;;;;;;;;;5115961;28;20996;-74
2022/07/17 08:02:26;;;;;;;3.47;2.37;;;;;;;;;;5115904;27;20473;-74
2022/07/17 08:04:54;;;;;;;4.23;3.07;;;;;;;;;;5116047;28;20455;-75
2022/07/17 08:07:21;;;;;;;3.40;3.10;;;;;;;;;;5115915;28;20449;-74
2022/07/17 08:09:48;;;;;;;3.57;2.87;;;;;;;;;;5116177;28;20922;-74
2022/07/17 08:12:15;;;;;;;4.40;2.50;;;;;;;;;;5115167;28;20503;-74
2022/07/17 08:14:43;;;;;;;5.10;2.37;;;;;;;;;;5115967;28;20457;-74
2022/07/17 08:17:11;;;;;;;6.50;3.00;;;;;;;;;;5116097;28;20449;-74
2022/07/17 08:19:38;;;;;;;3.13;2.60;;;;;;;;;;5116009;28;20476;-74
2022/07/17 08:22:05;;;;;;;6.63;3.10;;;;;;;;;;5115963;28;20469;-74
2022/07/17 08:24:32;;;;;;;2.70;2.40;;;;;;;;;;5115765;28;20823;-74
2022/07/17 08:26:59;;;;;;;4.07;2.43;;;;;;;;;;5115807;28;20467;-74
2022/07/17 08:29:26;;;;;;;3.93;3.10;;;;;;;;;;5115691;28;20457;-74
2022/07/17 08:31:55;;;;;;;5.50;2.50;;;;;;;;;;5115746;28;20854;-74
2022/07/17 08:34:22;;;;;;;3.93;2.50;;;;;;;;;;5115221;28;20453;-74
2022/07/17 08:36:49;;;;;;;2.97;2.73;;;;;;;;;;5115828;28;20922;-74
2022/07/17 08:39:16;;;;;;;4.80;2.70;;;;;;;;;;5115182;27;20469;-74
2022/07/17 08:41:43;;;;;;;4.50;2.80;;;;;;;;;;5115402;28;20473;-74
2022/07/17 08:44:10;;;;;;;3.00;2.30;;;;;;;;;;5115210;28;20449;-74
2022/07/17 08:46:38;;;;;;;5.70;3.33;;;;;;;;;;5115456;28;20454;-74
2022/07/17 08:49:07;;;;;;;3.63;3.27;;;;;;;;;;5115520;28;20942;-74
2022/07/17 08:51:35;;;;;;;3.40;2.30;;;;;;;;;;5115242;28;20477;-74
2022/07/17 08:54:02;;;;;;;3.83;2.70;;;;;;;;;;5115359;27;20989;-74
2022/07/17 08:56:29;;;;;;;4.60;2.60;;;;;;;;;;5114306;28;20453;-74
2022/07/17 08:58:56;;;;;;;3.60;2.60;;;;;;;;;;5115332;28;20453;-74
2022/07/17 09:01:24;;;;;;;4.60;2.47;;;;;;;;;;5114958;27;20505;-74
2022/07/17 09:03:55;;;;;;;2.70;2.50;;;;;;;;;;5114952;28;20485;-74
2022/07/17 09:06:24;;;;;;;2.67;2.23;;;;;;;;;;5114607;28;20482;-74
2022/07/17 09:09:01;;;;;;;4.33;2.50;;;;;;;;;;5115160;28;20453;-74
2022/07/17 09:11:29;;;;;;;6.17;2.10;;;;;;;;;;5114925;28;20499;-74
2022/07/17 09:13:56;;;;;;;3.70;2.40;;;;;;;;;;5114672;28;20450;-74
2022/07/17 09:16:23;;;;;;;3.37;2.47;;;;;;;;;;5114805;28;20449;-74
2022/07/17 09:18:53;;;;;;;4.20;2.30;;;;;;;;;;5114922;28;20523;-74
2022/07/17 09:21:21;;;;;;;3.37;2.40;;;;;;;;;;5114648;28;20581;-74
2022/07/17 09:23:59;;;;;;;2.87;1.97;;;;;;;;;;5114442;28;20478;-74
2022/07/17 09:26:27;;;;;;;2.20;2.00;;;;;;;;;;5114621;28;20460;-74
2022/07/17 09:28:54;;;;;;;2.63;2.40;;;;;;;;;;5114685;28;20476;-74
2022/07/17 09:31:26;;;;;;;2.97;1.90;;;;;;;;;;5114669;28;20488;-74
2022/07/17 09:33:53;;;;;;;2.27;2.07;;;;;;;;;;5114303;28;20449;-74
2022/07/17 09:36:20;;;;;;;3.13;2.50;;;;;;;;;;5114319;28;20450;-73
2022/07/17 09:38:47;;;;;;;2.63;2.43;;;;;;;;;;5114524;28;20445;-74
2022/07/17 09:41:16;;;;;;;3.13;2.80;;;;;;;;;;5114214;28;20862;-74
2022/07/17 09:43:45;;;;;;;2.97;2.67;;;;;;;;;;5114241;28;20458;-74
2022/07/17 09:46:13;;;;;;;4.90;3.10;;;;;;;;;;5114341;28;20446;-74
2022/07/17 09:48:46;;;;;;;2.33;2.13;;;;;;;;;;5114356;28;20453;-74
2022/07/17 09:51:14;;;;;;;3.23;2.80;;;;;;;;;;5113506;28;20476;-75
2022/07/17 09:53:41;;;;;;;5.77;2.27;;;;;;;;;;5114186;28;20886;-74
2022/07/17 09:56:10;;;;;;;4.47;2.30;;;;;;;;;;5114455;28;20446;-74
2022/07/17 09:58:40;;;;;;;3.40;2.30;;;;;;;;;;5114323;28;20441;-74
2022/07/17 10:01:07;;;;;;;4.63;1.97;;;;;;;;;;5114011;28;20490;-74
2022/07/17 10:03:35;;;;;;;3.13;2.30;;;;;;;;;;5113825;28;20473;-74
2022/07/17 10:06:03;;;;;;;3.13;1.90;;;;;;;;;;5113791;28;20457;-74
2022/07/17 10:08:31;;;;;;;5.77;2.33;;;;;;;;;;5113918;28;20457;-74
2022/07/17 10:10:59;;;;;;;2.63;2.30;;;;;;;;;;5113885;27;20460;-74
2022/07/17 10:13:26;;;;;;;2.97;2.57;;;;;;;;;;5113437;28;20524;-75
2022/07/17 10:15:55;;;;;;;3.30;2.33;;;;;;;;;;5113762;28;20454;-74
2022/07/17 10:18:22;;;;;;;2.40;2.20;;;;;;;;;;5113563;28;20961;-74
2022/07/17 10:20:49;;;;;;;5.33;2.53;;;;;;;;;;5113774;28;20488;-74
2022/07/17 10:23:17;;;;;;;2.90;2.13;;;;;;;;;;5113547;28;20473;-74
2022/07/17 10:25:44;;;;;;;9.50;2.57;;;;;;;;;;5113646;28;20453;-74
2022/07/17 10:28:12;;;;;;;3.13;2.53;;;;;;;;;;5113410;28;20453;-74
2022/07/17 10:30:42;;;;;;;4.00;2.10;;;;;;;;;;5113492;28;21060;-74
2022/07/17 10:33:16;;;;;;;3.37;1.93;;;;;;;;;;5113511;28;20982;-74
2022/07/17 10:35:45;;;;;;;3.20;1.93;;;;;;;;;;5112868;28;20448;-74
2022/07/17 10:38:12;;;;;;;4.83;2.20;;;;;;;;;;5113536;28;20795;-74
2022/07/17 10:40:40;;;;;;;4.37;2.00;;;;;;;;;;5113343;28;20473;-74
2022/07/17 10:43:08;;;;;;;5.43;2.40;;;;;;;;;;5113229;28;20484;-74
2022/07/17 10:45:38;;;;;;;5.23;3.93;;;;;;;;;;5113251;28;20449;-74
2022/07/17 10:48:06;;;;;;;3.47;2.30;;;;;;;;;;5113459;28;20485;-74
2022/07/17 10:50:36;;;;;;;22.67;2.73;;;;;;;;;;5113596;28;20477;-74
2022/07/17 10:53:12;;;;;;;2.43;2.23;;;;;;;;;;5113029;28;21043;-74
2022/07/17 10:55:40;;;;;;;2.20;2.00;;;;;;;;;;5113402;28;20449;-74
2022/07/17 10:58:15;;;;;;;4.17;2.00;;;;;;;;;;5113347;28;20449;-74
2022/07/17 11:00:42;;;;;;;2.70;1.93;;;;;;;;;;5113348;28;20480;-74
2022/07/17 11:03:11;;;;;;;3.17;2.53;;;;;;;;;;5113224;28;20466;-74
2022/07/17 11:05:39;;;;;;;3.40;2.50;;;;;;;;;;5113071;28;20454;-74
2022/07/17 11:08:09;;;;;;;3.80;2.20;;;;;;;;;;5113165;28;20442;-74
2022/07/17 11:10:37;;;;;;;2.53;2.17;;;;;;;;;;5113069;28;20450;-74
2022/07/17 11:13:11;;;;;;;4.03;1.97;;;;;;;;;;5113109;28;20514;-74
2022/07/17 11:15:42;;;;;;;2.43;2.23;;;;;;;;;;5113135;28;20442;-74
2022/07/17 11:18:13;;;;;;;2.13;1.93;;;;;;;;;;5112888;28;20815;-74
2022/07/17 11:20:52;;;;;;;4.23;2.07;;;;;;;;;;5113286;28;20493;-74
2022/07/17 11:23:19;;;;;;;2.50;2.30;;;;;;;;;;5112950;28;20476;-74
2022/07/17 11:25:57;;;;;;;5.20;2.50;;;;;;;;;;5112816;28;20947;-74
2022/07/17 11:28:35;;;;;;;2.73;1.87;;;;;;;;;;5113112;28;20445;-74
2022/07/17 11:31:03;;;;;;;2.17;1.97;;;;;;;;;;5113164;28;20457;-74
2022/07/17 11:33:30;;;;;;;2.63;1.97;;;;;;;;;;5112752;28;20449;-75
2022/07/17 11:35:59;;;;;;;1.73;1.63;;;;;;;;;;5113328;28;20854;-74
2022/07/17 11:38:30;;;;;;;2.17;1.97;;;;;;;;;;5112915;28;20890;-74
2022/07/17 11:40:57;;;;;;;3.17;2.30;;;;;;;;;;5113022;28;20517;-74
2022/07/17 11:43:25;;;;;;;2.40;1.90;;;;;;;;;;5113924;28;20469;-74
2022/07/17 11:45:52;;;;;;;9.13;2.33;;;;;;;;;;5112873;28;20824;-74
2022/07/17 11:48:19;;;;;;;2.27;1.90;;;;;;;;;;5115734;28;20454;-74
2022/07/17 11:50:56;;;;;;;2.73;2.10;;;;;;;;;;5116962;28;20814;-74
2022/07/17 11:53:33;;;;;;;2.93;2.00;;;;;;;;;;5117656;27;20468;-75
2022/07/17 11:56:00;;;;;;;2.10;1.90;;;;;;;;;;5116971;28;20946;-74
2022/07/17 11:58:28;;;;;;;3.70;2.10;;;;;;;;;;5116192;28;20454;-74
2022/07/17 12:01:02;;;;;;;3.03;2.17;;;;;;;;;;5116378;27;20484;-74
2022/07/17 12:03:29;;;;;;;2.90;2.60;;;;;;;;;;5116043;28;20456;-75
2022/07/17 12:05:56;;;;;;;3.80;2.60;;;;;;;;;;5116267;28;20541;-74
2022/07/17 12:08:23;;;;;;;3.37;2.50;;;;;;;;;;5116079;27;20454;-74
2022/07/17 12:11:00;;;;;;;3.77;2.37;;;;;;;;;;5116167;28;20962;-74
2022/07/17 12:13:38;;;;;;;2.53;2.23;;;;;;;;;;5115949;28;20860;-75
2022/07/17 12:16:19;;;;;;;2.77;2.07;;;;;;;;;;5116163;28;20448;-74
2022/07/17 12:18:56;;;;;;;3.40;2.20;;;;;;;;;;5116066;28;20453;-74
2022/07/17 12:21:23;;;;;;;5.40;2.83;;;;;;;;;;5115662;28;20497;-74
2022/07/17 12:23:58;;;;;;;5.30;2.20;;;;;;;;;;5115757;28;20458;-74
2022/07/17 12:26:27;;;;;;;5.07;2.60;;;;;;;;;;5115543;28;20465;-74
2022/07/17 12:28:55;;;;;;;3.63;2.30;;;;;;;;;;5115775;28;20460;-74
2022/07/17 12:31:23;;;;;;;4.30;2.63;;;;;;;;;;5115555;28;20994;-74
2022/07/17 12:33:52;;;;;;;3.00;2.50;;;;;;;;;;5115550;28;20834;-74
2022/07/17 12:36:19;;;;;;;2.93;2.17;;;;;;;;;;5115304;28;20473;-74
2022/07/17 12:38:46;;;;;;;5.20;3.03;;;;;;;;;;5115877;28;20462;-74
2022/07/17 12:41:13;;;;;;;4.30;2.70;;;;;;;;;;5115389;28;20484;-74
2022/07/17 12:43:41;;;;;;;2.10;1.90;;;;;;;;;;5115605;28;20826;-74
2022/07/17 12:46:08;;;;;;;3.03;2.10;;;;;;;;;;5115569;28;20460;-74
2022/07/17 12:48:38;;;;;;;2.53;2.20;;;;;;;;;;5115386;28;20446;-74
2022/07/17 12:51:06;;;;;;;6.23;2.10;;;;;;;;;;5115303;28;20877;-74
2022/07/17 12:53:33;;;;;;;3.13;2.40;;;;;;;;;;5114863;28;20938;-74
2022/07/17 12:56:00;;;;;;;6.20;2.70;;;;;;;;;;5115228;28;20840;-74
2022/07/17 12:58:27;;;;;;;2.53;2.30;;;;;;;;;;5114814;28;20461;-74
2022/07/17 13:00:55;;;;;;;2.60;2.40;;;;;;;;;;5114977;28;20581;-74
2022/07/17 13:03:22;;;;;;;2.60;2.10;;;;;;;;;;5115158;28;20469;-74
2022/07/17 13:05:50;;;;;;;3.43;2.77;;;;;;;;;;5114974;28;20450;-74
2022/07/17 13:08:17;;;;;;;2.73;2.10;;;;;;;;;;5114970;28;20458;-74
2022/07/17 13:10:44;;;;;;;4.13;2.07;;;;;;;;;;5115061;27;20458;-74
2022/07/17 13:13:11;;;;;;;2.70;2.47;;;;;;;;;;5114715;28;20470;-74
2022/07/17 13:15:38;;;;;;;3.17;2.37;;;;;;;;;;5114261;27;20442;-74
2022/07/17 13:18:06;;;;;;;5.20;2.33;;;;;;;;;;5114842;27;20873;-73
2022/07/17 13:20:34;;;;;;;2.60;2.30;;;;;;;;;;5114737;28;20449;-73
2022/07/17 13:23:02;;;;;;;3.73;2.47;;;;;;;;;;5114628;28;20513;-75
2022/07/17 13:25:29;;;;;;;2.97;2.57;;;;;;;;;;5114203;28;20947;-75
2022/07/17 13:27:56;;;;;;;3.37;2.30;;;;;;;;;;5114664;28;20865;-75
2022/07/17 13:30:23;;;;;;;3.80;2.10;;;;;;;;;;5114582;28;20454;-74
2022/07/17 13:32:50;;;;;;;2.80;2.47;;;;;;;;;;5114774;27;20458;-74
2022/07/17 13:35:19;;;;;;;3.70;2.03;;;;;;;;;;5114329;28;20938;-74
2022/07/17 13:37:46;;;;;;;2.00;1.83;;;;;;;;;;5114500;28;20460;-75
2022/07/17 13:40:13;;;;;;;2.90;2.60;;;;;;;;;;5114359;28;20450;-75
2022/07/17 13:42:40;;;;;;;2.90;2.10;;;;;;;;;;5114491;28;20485;-75
2022/07/17 13:45:08;;;;;;;2.47;2.10;;;;;;;;;;5114059;28;20947;-75
2022/07/17 13:47:35;;;;;;;3.57;2.30;;;;;;;;;;5114421;28;20442;-75
2022/07/17 13:50:02;;;;;;;2.27;2.07;;;;;;;;;;5114344;27;20469;-75
2022/07/17 13:52:31;;;;;;;3.20;1.83;;;;;;;;;;5113660;28;20472;-75
2022/07/17 13:54:59;;;;;;;2.70;2.50;;;;;;;;;;5114106;28;20500;-74
2022/07/17 13:57:27;;;;;;;2.73;2.23;;;;;;;;;;5114131;28;20454;-75
2022/07/17 13:59:54;;;;;;;3.97;3.43;;;;;;;;;;5109324;28;20525;-75
2022/07/17 14:02:21;;;;;;;8.83;1.90;;;;;;;;;;5112408;28;20489;-76
2022/07/17 14:04:48;;;;;;;2.67;2.20;;;;;;;;;;5113019;28;20458;-75
2022/07/17 14:07:16;;;;;;;2.60;2.13;;;;;;;;;;5113374;28;20449;-75
2022/07/17 14:09:44;;;;;;;2.50;2.07;;;;;;;;;;5112942;28;20446;-75
2022/07/17 14:12:11;;;;;;;2.40;2.03;;;;;;;;;;5113857;28;20472;-75
2022/07/17 14:14:38;;;;;;;5.63;2.40;;;;;;;;;;5113621;28;20450;-75
2022/07/17 14:17:07;;;;;;;3.20;2.80;;;;;;;;;;5113594;28;20829;-75
2022/07/17 14:19:35;;;;;;;3.80;2.60;;;;;;;;;;5113657;28;20548;-75
2022/07/17 14:22:02;;;;;;;4.07;2.27;;;;;;;;;;5113502;28;20528;-75
2022/07/17 14:24:29;;;;;;;3.40;2.30;;;;;;;;;;5113421;28;20468;-76
2022/07/17 14:26:58;;;;;;;4.27;2.70;;;;;;;;;;5113691;28;20461;-75
2022/07/17 14:29:25;;;;;;;4.40;3.13;;;;;;;;;;5113910;28;20458;-75
2022/07/17 14:31:53;;;;;;;2.20;2.00;;;;;;;;;;5113473;28;20893;-75
2022/07/17 14:34:21;;;;;;;5.30;2.10;;;;;;;;;;5113451;28;20891;-75
2022/07/17 14:36:50;;;;;;;3.43;2.57;;;;;;;;;;5113683;28;20943;-75
2022/07/17 14:39:17;;;;;;;8.87;2.60;;;;;;;;;;5113844;28;20946;-75
2022/07/17 14:41:45;;;;;;;3.47;2.17;;;;;;;;;;5113443;28;20955;-75
2022/07/17 14:44:14;;;;;;;2.43;2.23;;;;;;;;;;5113237;28;20955;-75
2022/07/17 14:46:41;;;;;;;2.20;2.00;;;;;;;;;;5113573;28;20456;-75